Mounds View, Minnesota
Current Conditions -  °F | °C
As of 6:55 PM on Sunday 21 Dec 2014 (Local Time) from KANE Reporting Station
Haze Haze  
Wind Chill: 31°   Ceiling: 400
Heat Index: 37°   Visibility: 1.7mi
Dew Point: 37°   Wind: 9mph
Humidity: 100%   Direction: 150°SSE
Pressure: 29.73"   Gusts: NA
Location:  45.0755°N, 93.1911°W
Report Text: KANE 220055Z 15008KT 1 3/4SM BR OVC004 03/03 A2973
Loading
Personal Weather Stations






























Interactive Weather Map New forecast layout! Learn more

10-Day Weather Forecast

Advertisements
Track Severe Weather on mobile